Time;durP1;ratioP1;P1;durP2;ratioP2;P2;SDS_P1;SDS_P2;PMS_P1;PMS_P2;Temp;Humidity;BMP_temperature;BMP_pressure;BME280_temperature;BME280_humidity;BME280_pressure;Samples;Min_cycle;Max_cycle;Signal;HPM_P1;HPM_P2
2021/10/17 00:01:17;;;;;;;7.23;4.37;;;10.70;99.90;;;;;;5076000;28;20487;-81
2021/10/17 00:03:44;;;;;;;6.53;3.63;;;10.80;99.90;;;;;;5075663;28;20486;-85
2021/10/17 00:06:10;;;;;;;5.07;3.90;;;10.80;99.90;;;;;;5075962;28;20884;-84
2021/10/17 00:08:37;;;;;;;5.87;3.50;;;10.80;99.90;;;;;;5076042;28;20584;-84
2021/10/17 00:11:03;;;;;;;7.13;3.90;;;10.70;99.90;;;;;;5075647;28;21013;-84
2021/10/17 00:13:30;;;;;;;5.53;3.50;;;10.80;99.90;;;;;;5075877;28;20447;-84
2021/10/17 00:15:58;;;;;;;6.70;3.70;;;10.80;99.90;;;;;;5076008;28;20476;-84
2021/10/17 00:18:25;;;;;;;6.67;4.13;;;10.80;99.90;;;;;;5075691;28;20486;-84
2021/10/17 00:20:51;;;;;;;10.03;3.60;;;10.70;99.90;;;;;;5075723;28;20516;-84
2021/10/17 00:23:18;;;;;;;7.33;3.63;;;10.70;99.90;;;;;;5075801;28;20448;-84
2021/10/17 00:25:45;;;;;;;4.13;3.73;;;10.70;99.90;;;;;;5075546;28;21036;-84
2021/10/17 00:28:11;;;;;;;7.47;3.97;;;10.80;99.90;;;;;;5075661;28;20451;-82
2021/10/17 00:30:38;;;;;;;3.90;3.20;;;10.70;99.90;;;;;;5075848;28;20471;-82
2021/10/17 00:33:06;;;;;;;4.67;4.00;;;10.80;99.90;;;;;;5075212;28;20435;-82
2021/10/17 00:35:33;;;;;;;6.03;3.93;;;10.80;99.90;;;;;;5075149;28;20784;-82
2021/10/17 00:38:00;;;;;;;6.67;3.60;;;10.70;99.90;;;;;;5075417;28;20440;-82
2021/10/17 00:40:26;;;;;;;5.10;4.03;;;10.80;99.90;;;;;;5075081;28;20447;-82
2021/10/17 00:42:56;;;;;;;4.10;3.70;;;10.70;99.90;;;;;;5086458;28;20479;-82
2021/10/17 00:45:27;;;;;;;10.73;4.23;;;10.80;99.90;;;;;;5075564;28;20501;-84
2021/10/17 00:47:54;;;;;;;3.80;3.00;;;10.70;99.90;;;;;;5074908;28;20533;-84
2021/10/17 00:50:22;;;;;;;6.43;3.73;;;10.70;99.90;;;;;;5075152;28;20497;-84
2021/10/17 00:52:48;;;;;;;4.97;3.30;;;10.70;99.90;;;;;;5074638;28;20447;-84
2021/10/17 00:55:18;;;;;;;4.07;3.67;;;10.70;99.90;;;;;;5075012;28;20491;-82
2021/10/17 00:57:46;;;;;;;3.87;3.57;;;10.70;99.90;;;;;;5074636;28;20487;-82
2021/10/17 01:00:15;;;;;;;5.07;3.47;;;10.70;99.90;;;;;;5074678;28;20490;-82
2021/10/17 01:02:42;;;;;;;5.37;3.80;;;10.70;99.90;;;;;;5074505;28;20508;-82
2021/10/17 01:05:12;;;;;;;4.40;3.50;;;10.70;99.90;;;;;;5074843;28;20557;-82
2021/10/17 01:07:40;;;;;;;6.70;4.00;;;10.70;99.90;;;;;;5074590;28;21063;-82
2021/10/17 01:10:07;;;;;;;3.70;3.30;;;10.70;99.90;;;;;;5074348;28;20534;-82
2021/10/17 01:12:34;;;;;;;7.37;3.83;;;10.70;99.90;;;;;;5074412;28;20868;-82
2021/10/17 01:15:00;;;;;;;3.40;3.13;;;10.60;99.90;;;;;;5074531;28;20527;-82
2021/10/17 01:17:27;;;;;;;5.10;4.00;;;10.60;99.90;;;;;;5074350;28;20447;-82
2021/10/17 01:19:55;;;;;;;3.40;3.10;;;10.60;99.90;;;;;;5074519;28;20479;-83
2021/10/17 01:22:24;;;;;;;7.13;3.40;;;10.60;99.90;;;;;;5074258;28;20537;-82
2021/10/17 01:24:51;;;;;;;5.50;3.20;;;10.60;99.90;;;;;;5074271;28;20934;-82
2021/10/17 01:27:17;;;;;;;3.57;3.23;;;10.60;99.90;;;;;;5074154;28;20566;-82
2021/10/17 01:29:44;;;;;;;5.47;3.53;;;10.60;99.90;;;;;;5074196;28;20531;-83
2021/10/17 01:32:11;;;;;;;6.90;3.30;;;10.50;99.90;;;;;;5074192;28;20546;-82
2021/10/17 01:34:37;;;;;;;7.10;3.70;;;10.60;99.90;;;;;;5074262;28;20799;-82
2021/10/17 01:37:05;;;;;;;4.23;3.23;;;10.60;99.90;;;;;;5074181;28;20881;-83
2021/10/17 01:39:32;;;;;;;6.00;3.03;;;10.60;99.90;;;;;;5074026;28;20535;-83
2021/10/17 01:41:59;;;;;;;3.87;2.30;;;10.50;99.90;;;;;;5073750;28;21031;-83
2021/10/17 01:44:28;;;;;;;10.10;3.07;;;10.60;99.90;;;;;;5074094;28;20479;-82
2021/10/17 01:46:55;;;;;;;7.03;3.13;;;10.60;99.90;;;;;;5073743;28;20503;-82
2021/10/17 01:49:22;;;;;;;4.47;2.73;;;10.50;99.90;;;;;;5073900;28;20479;-82
2021/10/17 01:51:48;;;;;;;5.00;2.97;;;10.60;99.90;;;;;;5073995;28;20801;-82
2021/10/17 01:54:16;;;;;;;2.67;2.43;;;10.50;99.90;;;;;;5073721;28;20482;-83
2021/10/17 01:56:43;;;;;;;3.30;2.80;;;10.50;99.90;;;;;;5073522;28;20475;-82
2021/10/17 01:59:10;;;;;;;5.90;3.37;;;10.50;99.90;;;;;;5073762;28;20562;-82
2021/10/17 02:01:37;;;;;;;3.13;2.83;;;10.50;99.90;;;;;;5073950;28;20455;-82
2021/10/17 02:04:04;;;;;;;4.70;3.13;;;10.50;99.90;;;;;;5073429;28;20452;-82
2021/10/17 02:06:31;;;;;;;4.97;2.90;;;10.50;99.90;;;;;;5073273;28;20479;-82
2021/10/17 02:08:58;;;;;;;4.73;2.70;;;10.50;99.90;;;;;;5073431;28;20452;-81
2021/10/17 02:11:26;;;;;;;2.93;2.70;;;10.50;99.90;;;;;;5073398;28;20617;-81
2021/10/17 02:13:52;;;;;;;2.83;2.53;;;10.50;99.90;;;;;;5073869;28;20483;-81
2021/10/17 02:16:19;;;;;;;6.10;3.33;;;10.50;99.90;;;;;;5073953;28;20487;-82
2021/10/17 02:18:46;;;;;;;4.97;2.80;;;10.50;99.90;;;;;;5073468;28;20494;-82
2021/10/17 02:21:13;;;;;;;3.37;3.00;;;10.40;99.90;;;;;;5073629;28;20513;-82
2021/10/17 02:23:39;;;;;;;3.60;3.00;;;10.40;99.90;;;;;;5073290;28;20538;-82
2021/10/17 02:26:07;;;;;;;5.80;2.50;;;10.40;99.90;;;;;;5073843;28;20478;-82
2021/10/17 02:28:35;;;;;;;5.07;2.80;;;10.50;99.90;;;;;;5073892;28;20475;-82
2021/10/17 02:31:02;;;;;;;3.90;2.87;;;10.40;99.90;;;;;;5073436;28;20998;-82
2021/10/17 02:33:29;;;;;;;3.40;2.70;;;10.40;99.90;;;;;;5073326;28;20478;-82
2021/10/17 02:35:55;;;;;;;6.73;2.43;;;10.40;99.90;;;;;;5073172;28;20451;-82
2021/10/17 02:38:22;;;;;;;4.17;2.13;;;10.40;99.90;;;;;;5073134;28;20538;-82
2021/10/17 02:40:48;;;;;;;3.97;2.83;;;10.40;99.90;;;;;;5073332;28;20538;-82
2021/10/17 02:43:15;;;;;;;7.67;2.73;;;10.40;99.90;;;;;;5073181;28;20471;-82
2021/10/17 02:45:43;;;;;;;2.50;2.20;;;10.40;99.90;;;;;;5073359;28;20495;-84
2021/10/17 02:48:10;;;;;;;5.30;2.70;;;10.40;99.90;;;;;;5072972;28;20874;-83
2021/10/17 02:50:36;;;;;;;4.10;2.60;;;10.40;99.90;;;;;;5073222;28;20487;-83
2021/10/17 02:53:03;;;;;;;4.93;2.80;;;10.40;99.90;;;;;;5073030;28;20482;-82
2021/10/17 02:55:29;;;;;;;7.23;2.53;;;10.40;99.90;;;;;;5073431;28;20792;-82
2021/10/17 02:57:56;;;;;;;4.90;2.60;;;10.40;99.90;;;;;;5073097;28;20473;-82
2021/10/17 03:00:25;;;;;;;8.23;2.43;;;10.40;99.90;;;;;;5073030;28;20486;-82
2021/10/17 03:02:53;;;;;;;8.27;3.30;;;10.40;99.90;;;;;;5072945;28;20535;-81
2021/10/17 03:05:20;;;;;;;4.77;3.30;;;10.40;99.90;;;;;;5072902;28;20479;-82
2021/10/17 03:07:46;;;;;;;4.63;2.80;;;10.40;99.90;;;;;;5072840;28;20483;-81
2021/10/17 03:10:13;;;;;;;7.13;2.73;;;10.30;99.90;;;;;;5072787;28;20562;-81
2021/10/17 03:12:40;;;;;;;5.47;2.90;;;10.40;99.90;;;;;;5072948;28;20506;-82
2021/10/17 03:15:08;;;;;;;3.60;2.70;;;10.30;99.90;;;;;;5072758;28;20483;-83
2021/10/17 03:17:34;;;;;;;5.33;2.40;;;10.40;99.90;;;;;;5076327;28;20457;-83
2021/10/17 03:20:02;;;;;;;7.43;2.87;;;10.40;99.90;;;;;;5076704;28;20443;-83
2021/10/17 03:22:30;;;;;;;4.60;2.67;;;10.40;99.90;;;;;;5076691;28;20486;-82
2021/10/17 03:24:57;;;;;;;4.83;3.00;;;10.40;99.90;;;;;;5076612;28;20482;-82
2021/10/17 03:27:23;;;;;;;3.70;2.40;;;10.40;99.90;;;;;;5076463;28;20487;-82
2021/10/17 03:29:50;;;;;;;3.10;2.17;;;10.40;99.90;;;;;;5076519;28;20471;-83
2021/10/17 03:32:17;;;;;;;3.10;2.70;;;10.40;99.90;;;;;;5076371;28;20455;-82
2021/10/17 03:34:43;;;;;;;3.10;2.80;;;10.40;99.90;;;;;;5076191;28;20501;-82
2021/10/17 03:37:11;;;;;;;4.67;3.23;;;10.40;99.90;;;;;;5076516;28;20542;-82
2021/10/17 03:39:38;;;;;;;3.87;2.67;;;10.30;99.90;;;;;;5076303;28;20483;-82
2021/10/17 03:42:05;;;;;;;5.03;2.87;;;10.40;99.90;;;;;;5076313;28;20462;-82
2021/10/17 03:44:31;;;;;;;5.07;2.97;;;10.40;99.90;;;;;;5076115;28;20485;-82
2021/10/17 03:46:58;;;;;;;3.30;2.83;;;10.40;99.90;;;;;;5075917;28;20997;-82
2021/10/17 03:49:24;;;;;;;4.03;2.70;;;10.30;99.90;;;;;;5076117;28;20439;-82
2021/10/17 03:51:51;;;;;;;3.17;2.40;;;10.30;99.90;;;;;;5076156;28;20451;-82
2021/10/17 03:54:19;;;;;;;6.40;2.83;;;10.20;99.90;;;;;;5076002;28;20538;-81
2021/10/17 03:56:45;;;;;;;3.90;2.50;;;10.10;99.90;;;;;;5075997;28;20478;-81
2021/10/17 03:59:15;;;;;;;3.57;2.80;;;9.90;99.90;;;;;;5075755;28;20478;-81
2021/10/17 04:01:41;;;;;;;5.23;3.10;;;9.80;99.90;;;;;;5075914;28;20483;-82
2021/10/17 04:04:08;;;;;;;3.23;2.80;;;9.70;99.90;;;;;;5076042;28;20480;-82
2021/10/17 04:06:36;;;;;;;7.50;3.00;;;9.60;99.90;;;;;;5075936;28;20448;-82
2021/10/17 04:09:02;;;;;;;3.97;3.33;;;9.50;99.90;;;;;;5075782;28;20479;-82
2021/10/17 04:11:30;;;;;;;4.27;3.37;;;9.40;99.90;;;;;;5075528;28;20966;-82
2021/10/17 04:13:57;;;;;;;3.20;2.90;;;9.30;99.90;;;;;;5075302;28;20851;-75
2021/10/17 04:16:23;;;;;;;5.33;3.17;;;9.20;99.90;;;;;;5075456;28;20542;-81
2021/10/17 04:18:50;;;;;;;6.10;3.60;;;9.10;99.90;;;;;;5075442;28;20538;-81
2021/10/17 04:21:17;;;;;;;3.90;2.90;;;9.10;99.90;;;;;;5075459;28;20546;-81
2021/10/17 04:23:43;;;;;;;7.90;2.73;;;9.00;99.90;;;;;;5075305;28;20447;-81
2021/10/17 04:26:10;;;;;;;5.20;3.13;;;8.90;99.90;;;;;;5075511;28;20448;-81
2021/10/17 04:28:38;;;;;;;2.83;2.63;;;8.90;99.90;;;;;;5074394;28;20525;-81
2021/10/17 04:31:04;;;;;;;4.10;2.73;;;8.80;99.90;;;;;;5075573;28;20849;-81
2021/10/17 04:33:31;;;;;;;7.67;3.57;;;8.80;99.90;;;;;;5075529;28;20542;-82
2021/10/17 04:35:57;;;;;;;5.67;2.97;;;8.80;99.90;;;;;;5075436;28;20863;-82
2021/10/17 04:38:24;;;;;;;4.53;3.10;;;8.70;99.90;;;;;;5075087;28;20476;-82
2021/10/17 04:40:51;;;;;;;3.57;3.20;;;8.70;99.90;;;;;;5075577;28;20447;-82
2021/10/17 04:43:17;;;;;;;4.13;3.30;;;8.60;99.90;;;;;;5075064;28;20447;-82
2021/10/17 04:45:45;;;;;;;7.03;3.07;;;8.60;99.90;;;;;;5075281;28;20779;-82
2021/10/17 04:48:12;;;;;;;9.33;3.37;;;8.60;99.90;;;;;;5075064;28;20510;-81
2021/10/17 04:50:39;;;;;;;2.97;2.70;;;8.60;99.90;;;;;;5074745;28;20500;-81
2021/10/17 04:53:05;;;;;;;3.60;3.00;;;8.60;99.90;;;;;;5074471;28;20878;-81
2021/10/17 04:55:32;;;;;;;5.87;2.83;;;8.50;99.90;;;;;;5074145;28;20898;-81
2021/10/17 04:58:01;;;;;;;4.17;3.40;;;8.50;99.90;;;;;;5074171;28;20531;-81
2021/10/17 05:00:28;;;;;;;4.17;3.37;;;8.50;99.90;;;;;;5074179;28;20457;-82
2021/10/17 05:02:55;;;;;;;4.23;2.77;;;8.40;99.90;;;;;;5074194;28;20490;-82
2021/10/17 05:05:22;;;;;;;4.03;3.40;;;8.40;99.90;;;;;;5074066;28;20895;-82
2021/10/17 05:07:49;;;;;;;5.47;4.30;;;8.40;99.90;;;;;;5073947;28;20574;-82
2021/10/17 05:10:15;;;;;;;7.70;4.13;;;8.40;99.90;;;;;;5073616;28;21045;-82
2021/10/17 05:12:42;;;;;;;4.63;3.77;;;8.30;99.90;;;;;;5073904;28;20500;-81
2021/10/17 05:15:08;;;;;;;7.17;3.10;;;8.30;99.90;;;;;;5073828;28;20954;-81
2021/10/17 05:17:35;;;;;;;7.90;3.37;;;8.30;99.90;;;;;;5073949;28;20475;-82
2021/10/17 05:20:04;;;;;;;5.17;2.73;;;8.20;99.90;;;;;;5073778;28;20849;-82
2021/10/17 05:22:31;;;;;;;4.40;2.90;;;8.20;99.90;;;;;;5073773;28;20530;-82
2021/10/17 05:24:57;;;;;;;9.40;4.00;;;8.20;99.90;;;;;;5073652;28;20542;-82
2021/10/17 05:27:24;;;;;;;6.60;3.30;;;8.20;99.90;;;;;;5073839;28;20525;-82
2021/10/17 05:29:51;;;;;;;4.70;3.80;;;8.20;99.90;;;;;;5073671;28;20502;-82
2021/10/17 05:32:18;;;;;;;3.47;3.03;;;8.20;99.90;;;;;;5073739;28;20447;-82
2021/10/17 05:34:44;;;;;;;5.03;3.10;;;8.10;99.90;;;;;;5073541;28;20458;-82
2021/10/17 05:37:12;;;;;;;6.00;3.50;;;8.10;99.90;;;;;;5073973;28;20538;-82
2021/10/17 05:39:39;;;;;;;4.87;3.03;;;8.10;99.90;;;;;;5072833;28;20558;-82
2021/10/17 05:42:05;;;;;;;4.00;3.20;;;8.10;99.90;;;;;;5074553;28;20542;-81
2021/10/17 05:44:32;;;;;;;4.33;2.77;;;8.10;99.90;;;;;;5073944;28;20482;-82
2021/10/17 05:46:59;;;;;;;3.33;2.93;;;8.10;99.90;;;;;;5073729;28;20538;-82
2021/10/17 05:49:25;;;;;;;5.87;3.30;;;8.20;99.90;;;;;;5073189;28;21092;-82
2021/10/17 05:51:52;;;;;;;3.23;2.60;;;8.20;99.90;;;;;;5073344;28;21022;-82
2021/10/17 05:54:20;;;;;;;7.27;3.27;;;8.20;99.90;;;;;;5073447;28;20451;-82
2021/10/17 05:56:46;;;;;;;4.13;3.43;;;8.30;99.90;;;;;;5073687;28;20501;-82
2021/10/17 05:59:13;;;;;;;7.23;3.43;;;8.30;99.90;;;;;;5073388;28;20451;-81
2021/10/17 06:01:39;;;;;;;4.30;3.10;;;8.40;99.90;;;;;;5073794;28;20491;-81
2021/10/17 06:04:06;;;;;;;6.00;3.20;;;8.50;99.90;;;;;;5073734;28;20483;-81
2021/10/17 06:06:32;;;;;;;3.03;2.80;;;8.50;99.90;;;;;;5073675;28;20966;-81
2021/10/17 06:09:01;;;;;;;4.17;3.77;;;8.60;99.90;;;;;;5073910;28;20540;-80
2021/10/17 06:11:29;;;;;;;3.70;2.80;;;8.70;99.90;;;;;;5073471;28;20471;-80
2021/10/17 06:13:57;;;;;;;5.97;3.80;;;8.80;99.90;;;;;;5073804;28;20452;-81
2021/10/17 06:16:23;;;;;;;7.97;4.40;;;9.00;99.90;;;;;;5073713;28;20993;-81
2021/10/17 06:18:50;;;;;;;8.20;3.20;;;9.10;99.90;;;;;;5073533;28;20530;-81
2021/10/17 06:21:16;;;;;;;6.20;4.13;;;9.20;99.90;;;;;;5073086;28;20985;-81
2021/10/17 06:23:43;;;;;;;5.50;3.77;;;9.30;99.90;;;;;;5073381;28;20534;-81
2021/10/17 06:26:09;;;;;;;8.07;2.83;;;9.40;99.90;;;;;;5073479;28;20451;-81
2021/10/17 06:28:37;;;;;;;6.17;3.07;;;9.50;99.90;;;;;;5073203;28;21010;-81
2021/10/17 06:31:04;;;;;;;6.33;2.80;;;9.60;99.90;;;;;;5073343;28;20479;-81
2021/10/17 06:33:30;;;;;;;4.43;3.00;;;9.70;99.90;;;;;;5073269;28;20938;-81
2021/10/17 06:35:57;;;;;;;5.80;2.73;;;9.80;99.90;;;;;;5073169;28;20791;-81
2021/10/17 06:38:24;;;;;;;11.00;2.63;;;9.80;99.90;;;;;;5072968;28;20447;-81
2021/10/17 06:40:50;;;;;;;7.00;3.10;;;9.90;99.90;;;;;;5073107;28;20448;-80
2021/10/17 06:43:17;;;;;;;7.80;2.63;;;10.00;99.90;;;;;;5073350;28;20602;-84
2021/10/17 06:45:45;;;;;;;4.53;2.70;;;10.10;99.90;;;;;;5073266;28;20452;-84
2021/10/17 06:48:11;;;;;;;4.50;2.57;;;10.10;99.90;;;;;;5073216;28;20838;-85
2021/10/17 06:50:38;;;;;;;5.20;2.80;;;10.10;99.90;;;;;;5073433;28;20811;-82
2021/10/17 06:53:05;;;;;;;2.73;2.30;;;10.20;99.90;;;;;;5077353;28;20543;-82
2021/10/17 06:55:31;;;;;;;4.37;3.20;;;10.10;99.90;;;;;;5077240;28;20482;-82
2021/10/17 06:57:58;;;;;;;5.90;3.10;;;10.20;99.90;;;;;;5077007;28;20452;-82
2021/10/17 07:00:24;;;;;;;7.40;2.80;;;10.30;99.90;;;;;;5076479;28;20544;-82
2021/10/17 07:02:52;;;;;;;8.93;2.90;;;10.30;99.90;;;;;;5076362;28;20483;-82
2021/10/17 07:05:19;;;;;;;4.20;2.73;;;10.30;99.90;;;;;;5076487;28;20443;-82
2021/10/17 07:07:45;;;;;;;4.93;2.47;;;10.40;99.90;;;;;;5076145;28;20516;-82
2021/10/17 07:10:12;;;;;;;6.87;2.60;;;10.50;99.90;;;;;;5074453;28;20570;-83
2021/10/17 07:12:38;;;;;;;6.27;3.43;;;10.50;99.90;;;;;;5084865;28;20474;-83
2021/10/17 07:15:06;;;;;;;3.00;2.60;;;10.60;99.90;;;;;;5082926;28;20998;-83
2021/10/17 07:17:32;;;;;;;2.70;2.50;;;10.60;99.90;;;;;;5074085;28;20486;-84
2021/10/17 07:20:00;;;;;;;4.10;2.90;;;10.80;99.90;;;;;;5093227;28;20470;-85
2021/10/17 07:22:27;;;;;;;3.80;2.37;;;10.90;99.90;;;;;;5096273;28;20534;-83
2021/10/17 07:24:53;;;;;;;5.00;2.80;;;10.90;99.90;;;;;;5096304;28;20511;-84
2021/10/17 07:27:20;;;;;;;4.80;3.00;;;11.00;99.90;;;;;;5088053;28;20474;-82
2021/10/17 07:29:47;;;;;;;4.77;3.00;;;11.10;99.90;;;;;;5075695;28;20479;-82
2021/10/17 07:32:13;;;;;;;3.27;2.97;;;11.20;99.90;;;;;;5075721;28;20534;-83
2021/10/17 07:34:40;;;;;;;6.53;2.90;;;11.20;99.90;;;;;;5076591;28;20451;-83
2021/10/17 07:37:08;;;;;;;5.67;3.13;;;11.30;99.90;;;;;;5076467;28;20455;-83
2021/10/17 07:39:35;;;;;;;3.27;3.07;;;11.40;99.90;;;;;;5076104;28;20526;-83
2021/10/17 07:42:02;;;;;;;3.70;3.07;;;11.40;99.90;;;;;;5076359;28;20456;-83
2021/10/17 07:44:28;;;;;;;4.80;3.23;;;11.40;99.90;;;;;;5084855;28;20442;-83
2021/10/17 07:46:55;;;;;;;6.30;2.93;;;11.50;99.90;;;;;;5096413;28;20953;-82
2021/10/17 07:49:22;;;;;;;6.87;3.20;;;11.60;99.90;;;;;;5083516;28;20993;-83
2021/10/17 07:51:48;;;;;;;6.53;3.00;;;11.60;99.90;;;;;;5075732;28;20517;-82
2021/10/17 07:54:16;;;;;;;6.40;3.33;;;11.80;99.90;;;;;;5076032;28;20486;-83
2021/10/17 07:56:43;;;;;;;5.90;3.50;;;11.90;99.90;;;;;;5075681;28;20500;-83
2021/10/17 07:59:09;;;;;;;3.10;2.73;;;12.00;99.90;;;;;;5075441;28;20443;-87
2021/10/17 08:01:36;;;;;;;4.10;2.53;;;12.10;99.90;;;;;;5076175;28;20478;-85
2021/10/17 08:04:03;;;;;;;4.30;2.67;;;12.20;99.90;;;;;;5075249;28;20444;-85
2021/10/17 08:06:29;;;;;;;3.50;2.70;;;12.30;99.90;;;;;;5076302;28;20509;-83
2021/10/17 08:08:56;;;;;;;7.47;2.63;;;12.30;99.90;;;;;;5075763;28;21092;-85
2021/10/17 08:11:24;;;;;;;5.30;3.00;;;12.40;99.90;;;;;;5075241;28;20529;-85
2021/10/17 08:13:50;;;;;;;3.13;2.70;;;12.40;99.90;;;;;;5075538;28;20494;-82
2021/10/17 08:16:17;;;;;;;11.93;3.30;;;12.50;99.90;;;;;;5075496;28;20479;-81
2021/10/17 08:18:43;;;;;;;5.20;2.97;;;12.60;99.90;;;;;;5085428;28;20442;-77
2021/10/17 08:21:10;;;;;;;3.40;2.40;;;12.70;99.90;;;;;;5095193;28;20479;-78
2021/10/17 08:23:37;;;;;;;3.83;2.90;;;12.70;99.90;;;;;;5077825;28;20996;-75
2021/10/17 08:26:03;;;;;;;4.40;3.20;;;12.80;99.90;;;;;;5074378;28;20475;-75
2021/10/17 08:28:31;;;;;;;4.87;3.10;;;12.80;99.90;;;;;;5074500;28;20583;-75
2021/10/17 08:31:00;;;;;;;9.73;2.70;;;12.80;99.90;;;;;;5074841;28;20497;-76
2021/10/17 08:33:27;;;;;;;3.87;2.73;;;12.90;99.90;;;;;;5074527;28;21013;-75
2021/10/17 08:35:54;;;;;;;5.80;3.17;;;13.00;99.90;;;;;;5074557;28;20447;-75
2021/10/17 08:38:21;;;;;;;3.93;3.40;;;13.00;99.90;;;;;;5074509;28;20452;-75
2021/10/17 08:40:49;;;;;;;8.90;3.50;;;13.10;99.90;;;;;;5074412;28;20889;-75
2021/10/17 08:43:16;;;;;;;5.43;3.47;;;13.20;99.90;;;;;;5067120;28;20474;-75
2021/10/17 08:45:46;;;;;;;5.63;3.27;;;13.30;99.90;;;;;;5074471;28;20826;-75
2021/10/17 08:48:14;;;;;;;5.23;3.47;;;13.30;99.90;;;;;;5075266;28;20521;-75
2021/10/17 08:50:41;;;;;;;4.73;2.83;;;13.30;99.90;;;;;;5089803;28;20520;-75
2021/10/17 08:53:08;;;;;;;3.93;3.30;;;13.30;99.90;;;;;;5077167;28;20468;-75
2021/10/17 08:55:43;;;;;;;6.80;3.20;;;13.30;99.90;;;;;;5087582;28;20479;-75
2021/10/17 08:58:09;;;;;;;9.20;3.93;;;13.40;99.90;;;;;;5085484;28;20477;-75
2021/10/17 09:00:36;;;;;;;8.07;3.77;;;13.50;99.90;;;;;;5078719;28;20455;-75
2021/10/17 09:03:04;;;;;;;7.43;4.30;;;13.60;99.90;;;;;;5090169;28;20445;-76
2021/10/17 09:05:35;;;;;;;5.13;3.20;;;13.80;99.90;;;;;;5080125;28;20869;-75
2021/10/17 09:08:06;;;;;;;3.13;2.77;;;13.90;99.90;;;;;;5082964;28;20508;-76
2021/10/17 09:10:33;;;;;;;5.00;3.30;;;13.90;99.90;;;;;;5088061;28;20529;-75
2021/10/17 09:13:09;;;;;;;3.73;2.90;;;13.90;99.90;;;;;;5076669;28;20927;-75
2021/10/17 09:15:36;;;;;;;5.13;3.20;;;13.80;99.90;;;;;;5086626;28;20662;-75
2021/10/17 09:18:14;;;;;;;4.30;3.27;;;13.70;99.90;;;;;;5079864;28;20451;-75
2021/10/17 09:21:10;;;;;;;6.07;3.50;;;13.50;99.90;;;;;;5080164;28;20438;-76
2021/10/17 09:23:42;;;;;;;6.63;3.47;;;13.40;99.90;;;;;;5066124;28;20455;-75
2021/10/17 09:26:19;;;;;;;5.60;3.50;;;13.30;99.90;;;;;;5085899;28;20455;-75
2021/10/17 09:28:46;;;;;;;8.50;4.30;;;13.30;99.90;;;;;;5073067;28;20466;-75
2021/10/17 09:31:16;;;;;;;6.27;4.10;;;13.30;99.90;;;;;;5079092;28;20851;-75
2021/10/17 09:33:50;;;;;;;8.33;3.30;;;13.20;99.90;;;;;;5082147;28;20996;-75
2021/10/17 09:36:23;;;;;;;7.40;3.90;;;13.20;99.90;;;;;;5081193;28;20872;-75
2021/10/17 09:38:52;;;;;;;4.80;3.53;;;13.20;99.90;;;;;;5080315;28;20440;-75
2021/10/17 09:41:21;;;;;;;4.70;3.57;;;13.20;99.90;;;;;;5082808;28;20500;-75
2021/10/17 09:43:53;;;;;;;6.23;3.80;;;13.30;99.90;;;;;;5080566;28;20432;-75
2021/10/17 09:46:20;;;;;;;5.70;3.43;;;13.40;99.90;;;;;;5077124;28;20443;-75
2021/10/17 09:48:48;;;;;;;4.70;3.33;;;13.50;99.90;;;;;;5079818;28;20502;-75
2021/10/17 09:51:16;;;;;;;7.77;3.57;;;13.50;99.90;;;;;;5076594;28;20440;-75
2021/10/17 09:53:45;;;;;;;5.90;3.40;;;13.50;99.90;;;;;;5076433;28;20448;-75
2021/10/17 09:56:30;;;;;;;6.77;3.70;;;13.50;99.90;;;;;;5076725;28;20453;-75
2021/10/17 09:58:57;;;;;;;4.03;3.10;;;13.40;99.90;;;;;;5084415;28;20552;-74
2021/10/17 10:01:25;;;;;;;4.70;3.00;;;13.30;99.90;;;;;;5088580;28;20470;-75
2021/10/17 10:03:54;;;;;;;6.27;3.20;;;13.40;99.90;;;;;;5081359;28;20479;-75
2021/10/17 10:06:21;;;;;;;5.03;3.17;;;13.20;99.90;;;;;;5076609;28;20451;-76
2021/10/17 10:08:50;;;;;;;6.40;3.50;;;13.10;99.90;;;;;;5079743;28;20533;-76
2021/10/17 10:11:23;;;;;;;8.33;3.57;;;13.00;99.90;;;;;;5076482;28;20572;-77
2021/10/17 10:13:52;;;;;;;4.50;3.93;;;12.90;99.90;;;;;;5076700;28;20444;-77
2021/10/17 10:16:21;;;;;;;7.80;3.80;;;12.90;99.90;;;;;;5076491;28;20951;-77
2021/10/17 10:18:51;;;;;;;6.10;3.60;;;12.90;99.90;;;;;;5081185;28;20458;-77
2021/10/17 10:21:20;;;;;;;5.10;3.30;;;13.00;99.90;;;;;;5088307;28;20473;-77
2021/10/17 10:23:48;;;;;;;7.77;3.20;;;13.20;99.90;;;;;;5088874;28;20450;-77
2021/10/17 10:26:16;;;;;;;6.87;2.80;;;13.60;99.90;;;;;;5085687;28;20522;-77
2021/10/17 10:28:43;;;;;;;7.23;3.83;;;13.90;99.90;;;;;;5079930;28;20534;-77
2021/10/17 10:31:45;;;;;;;4.47;2.97;;;14.30;99.90;;;;;;5078263;28;20503;-78
2021/10/17 10:34:14;;;;;;;7.37;2.47;;;14.50;99.90;;;;;;5088015;28;20450;-78
2021/10/17 10:36:41;;;;;;;5.93;3.57;;;14.60;99.90;;;;;;5080052;28;21029;-78
2021/10/17 10:39:10;;;;;;;6.80;2.80;;;14.60;99.90;;;;;;5080961;28;20543;-78
2021/10/17 10:41:48;;;;;;;3.30;2.60;;;14.60;99.90;;;;;;5076010;28;20471;-78
2021/10/17 10:44:16;;;;;;;5.10;2.47;;;14.90;99.90;;;;;;5072918;28;20471;-78
2021/10/17 10:46:45;;;;;;;3.57;2.20;;;15.10;99.90;;;;;;5073819;28;20479;-79
2021/10/17 10:49:12;;;;;;;4.90;2.63;;;15.20;99.90;;;;;;5065060;28;20894;-77
2021/10/17 10:51:41;;;;;;;2.87;2.10;;;15.30;99.90;;;;;;5082108;28;20517;-77
2021/10/17 10:54:08;;;;;;;5.67;2.33;;;15.50;99.90;;;;;;5074617;28;20444;-85
2021/10/17 10:56:43;;;;;;;6.10;3.13;;;15.70;99.90;;;;;;5076432;28;20463;-77
2021/10/17 10:59:12;;;;;;;4.47;2.50;;;15.90;99.90;;;;;;5076050;28;20451;-78
2021/10/17 11:02:10;;;;;;;4.50;2.67;;;16.00;99.90;;;;;;5075927;28;20458;-77
2021/10/17 11:05:14;;;;;;;2.20;2.00;;;16.00;99.90;;;;;;5078301;28;20945;-77
2021/10/17 11:07:43;;;;;;;4.53;2.67;;;16.00;99.90;;;;;;5067525;28;20848;-82
2021/10/17 11:10:45;;;;;;;5.70;2.83;;;15.90;99.90;;;;;;5075201;28;20522;-78
2021/10/17 11:13:27;;;;;;;4.23;3.00;;;15.90;99.90;;;;;;5076835;28;20822;-78
2021/10/17 11:15:53;;;;;;;4.67;2.67;;;15.90;99.90;;;;;;5072660;28;20470;-77
2021/10/17 11:18:30;;;;;;;5.67;3.10;;;15.90;99.90;;;;;;5079739;28;20534;-78
2021/10/17 11:20:58;;;;;;;4.50;2.67;;;16.00;99.90;;;;;;5077387;28;20530;-77
2021/10/17 11:23:27;;;;;;;3.83;2.40;;;16.10;99.90;;;;;;5080030;28;20485;-77
2021/10/17 11:25:55;;;;;;;5.70;2.50;;;16.20;99.90;;;;;;5087553;28;20443;-77
2021/10/17 11:28:22;;;;;;;4.30;2.43;;;16.10;99.90;;;;;;5086940;28;20534;-77
2021/10/17 11:30:48;;;;;;;9.37;2.47;;;16.10;99.90;;;;;;5077856;28;20951;-77
2021/10/17 11:33:23;;;;;;;4.63;2.07;;;16.00;99.90;;;;;;5072530;28;20534;-78
2021/10/17 11:35:56;;;;;;;4.23;2.47;;;16.00;99.90;;;;;;5072686;28;20493;-78
2021/10/17 11:38:22;;;;;;;4.70;2.27;;;16.10;99.90;;;;;;5076650;28;20505;-78
2021/10/17 11:40:49;;;;;;;3.90;2.37;;;16.20;99.90;;;;;;5077080;28;20467;-78
2021/10/17 11:43:16;;;;;;;7.90;2.67;;;16.30;99.90;;;;;;5076491;28;20484;-78
2021/10/17 11:45:45;;;;;;;3.83;2.73;;;16.40;99.90;;;;;;5076301;28;20535;-78
2021/10/17 11:48:14;;;;;;;5.40;2.60;;;16.40;99.90;;;;;;5076002;28;20931;-78
2021/10/17 11:50:43;;;;;;;5.23;2.67;;;16.40;99.90;;;;;;5077675;28;20989;-80
2021/10/17 11:53:13;;;;;;;3.60;2.00;;;16.40;99.90;;;;;;5076253;28;20512;-78
2021/10/17 11:55:41;;;;;;;5.93;3.20;;;16.40;99.90;;;;;;5078849;28;20482;-78
2021/10/17 11:58:14;;;;;;;3.40;2.30;;;16.40;99.90;;;;;;5086196;28;20516;-78
2021/10/17 12:00:42;;;;;;;4.93;2.70;;;16.30;99.90;;;;;;5087118;28;20493;-78
2021/10/17 12:03:08;;;;;;;4.57;2.70;;;16.30;99.90;;;;;;5090296;28;21037;-78
2021/10/17 12:05:36;;;;;;;3.30;2.77;;;16.30;99.90;;;;;;5090834;28;20478;-79
2021/10/17 12:08:19;;;;;;;5.67;2.93;;;16.40;99.90;;;;;;5090912;28;20446;-78
2021/10/17 12:10:55;;;;;;;5.13;2.23;;;16.30;99.90;;;;;;5083325;28;20511;-78
2021/10/17 12:13:21;;;;;;;3.60;2.40;;;16.50;99.90;;;;;;5067357;28;20449;-78
2021/10/17 12:15:48;;;;;;;4.83;2.53;;;16.40;99.90;;;;;;5078379;28;20795;-78
2021/10/17 12:18:15;;;;;;;3.60;2.13;;;16.40;99.90;;;;;;5084185;28;20822;-78
2021/10/17 12:20:42;;;;;;;5.00;2.30;;;16.40;99.90;;;;;;5086679;28;20474;-78
2021/10/17 12:23:09;;;;;;;4.90;2.70;;;16.40;99.90;;;;;;5091144;28;20478;-78
2021/10/17 12:25:37;;;;;;;3.17;2.50;;;16.40;99.90;;;;;;5083132;28;20439;-79
2021/10/17 12:28:04;;;;;;;5.20;3.20;;;16.40;99.90;;;;;;5076955;28;21002;-79
2021/10/17 12:30:34;;;;;;;3.43;2.47;;;16.40;99.90;;;;;;5076962;28;20566;-78
2021/10/17 12:33:03;;;;;;;4.77;2.60;;;16.40;99.90;;;;;;5079305;28;20974;-78
2021/10/17 12:35:32;;;;;;;6.63;2.50;;;16.30;99.90;;;;;;5077262;28;20538;-78
2021/10/17 12:38:05;;;;;;;5.00;2.53;;;16.30;99.90;;;;;;5078021;28;20487;-77
2021/10/17 12:40:33;;;;;;;2.70;2.03;;;16.20;99.90;;;;;;5080053;28;20930;-78
2021/10/17 12:43:02;;;;;;;6.03;2.10;;;16.20;99.90;;;;;;5079649;28;20541;-78
2021/10/17 12:45:31;;;;;;;4.60;2.40;;;16.10;99.90;;;;;;5077934;28;20451;-79
2021/10/17 12:47:59;;;;;;;6.23;3.10;;;16.10;99.90;;;;;;5077850;28;20538;-78
2021/10/17 12:50:26;;;;;;;6.47;2.30;;;16.10;99.90;;;;;;5078530;28;20515;-78
2021/10/17 12:52:55;;;;;;;7.67;2.90;;;16.20;99.90;;;;;;5079929;28;20848;-78